Time;durP1;ratioP1;P1;durP2;ratioP2;P2;SDS_P1;SDS_P2;PMS_P1;PMS_P2;Temp;Humidity;BMP_temperature;BMP_pressure;BME280_temperature;BME280_humidity;BME280_pressure;Samples;Min_cycle;Max_cycle;Signal;HPM_P1;HPM_P2
2022/07/03 00:01:26;;;;;;;1.48;0.38;;;16.80;99.90;;;;;;5029487;28;20033;-72
2022/07/03 00:03:52;;;;;;;1.10;0.40;;;16.70;99.90;;;;;;5010226;28;20068;-72
2022/07/03 00:06:18;;;;;;;1.20;0.40;;;16.70;99.90;;;;;;5030868;28;20507;-71
2022/07/03 00:08:44;;;;;;;1.17;0.40;;;16.70;99.90;;;;;;5010204;28;20086;-72
2022/07/03 00:11:11;;;;;;;1.20;0.40;;;16.70;99.90;;;;;;5043159;28;20467;-72
2022/07/03 00:13:36;;;;;;;1.80;0.40;;;16.70;99.90;;;;;;5030116;28;20078;-72
2022/07/03 00:16:02;;;;;;;1.40;0.40;;;16.70;99.90;;;;;;5017529;28;20033;-72
2022/07/03 00:18:28;;;;;;;1.23;0.47;;;16.60;99.90;;;;;;5026316;28;20045;-73
2022/07/03 00:21:06;;;;;;;1.25;0.40;;;16.60;99.90;;;;;;5016569;28;20033;-72
2022/07/03 00:23:46;;;;;;;1.05;0.40;;;16.50;99.90;;;;;;5028537;28;20444;-72
2022/07/03 00:26:13;;;;;;;0.85;0.30;;;16.50;99.90;;;;;;5034991;28;20072;-75
2022/07/03 00:28:42;;;;;;;1.23;0.40;;;16.50;99.90;;;;;;5032326;28;20079;-72
2022/07/03 00:31:09;;;;;;;2.08;0.40;;;16.50;99.90;;;;;;5027189;28;20059;-72
2022/07/03 00:33:36;;;;;;;2.53;0.50;;;16.50;99.90;;;;;;5016200;28;20605;-71
2022/07/03 00:36:02;;;;;;;1.58;0.40;;;16.40;99.90;;;;;;5014236;28;20025;-72
2022/07/03 00:38:28;;;;;;;0.93;0.32;;;16.40;99.90;;;;;;5028309;28;20041;-72
2022/07/03 00:40:54;;;;;;;1.38;0.40;;;16.30;99.90;;;;;;5009510;28;20076;-72
2022/07/03 00:43:20;;;;;;;0.95;0.40;;;16.30;99.90;;;;;;5012725;28;22024;-73
2022/07/03 00:45:48;;;;;;;1.17;0.40;;;16.30;99.90;;;;;;5027765;28;20036;-72
2022/07/03 00:48:15;;;;;;;0.80;0.35;;;16.30;99.90;;;;;;5014763;28;20111;-72
2022/07/03 00:50:46;;;;;;;1.45;0.30;;;16.20;99.90;;;;;;5015806;28;20226;-72
2022/07/03 00:53:13;;;;;;;0.88;0.30;;;16.20;99.90;;;;;;5026482;28;20389;-71
2022/07/03 00:55:41;;;;;;;0.70;0.30;;;16.20;99.90;;;;;;5013458;28;20025;-72
2022/07/03 00:58:07;;;;;;;0.65;0.30;;;16.20;99.90;;;;;;5041438;28;20589;-72
2022/07/03 01:00:39;;;;;;;1.77;0.30;;;16.10;99.90;;;;;;5013856;28;20428;-73
2022/07/03 01:03:06;;;;;;;0.80;0.30;;;16.10;99.90;;;;;;5027722;28;20069;-71
2022/07/03 01:05:40;;;;;;;1.05;0.40;;;16.00;99.90;;;;;;5015295;28;20562;-72
2022/07/03 01:08:26;;;;;;;0.95;0.30;;;15.90;99.90;;;;;;5027914;28;20502;-72
2022/07/03 01:11:18;;;;;;;1.05;0.30;;;15.80;99.90;;;;;;5012063;28;20389;-72
2022/07/03 01:13:56;;;;;;;0.95;0.40;;;15.80;99.90;;;;;;4996210;28;20416;-72
2022/07/03 01:16:30;;;;;;;1.10;0.40;;;15.80;99.90;;;;;;5009582;28;20120;-72
2022/07/03 01:19:26;;;;;;;0.60;0.30;;;15.80;99.90;;;;;;5027672;28;20037;-71
2022/07/03 01:22:27;;;;;;;1.00;0.40;;;15.70;99.90;;;;;;5027097;28;20048;-72
2022/07/03 01:25:08;;;;;;;0.90;0.30;;;15.60;99.90;;;;;;4997987;28;20492;-72
2022/07/03 01:27:38;;;;;;;0.93;0.30;;;15.50;99.90;;;;;;5027313;28;20055;-72
2022/07/03 01:30:07;;;;;;;1.55;0.20;;;15.50;99.90;;;;;;5027043;28;20028;-72
2022/07/03 01:32:40;;;;;;;0.52;0.30;;;15.30;99.90;;;;;;5013752;28;20021;-72
2022/07/03 01:35:07;;;;;;;0.88;0.30;;;15.40;99.90;;;;;;4997177;28;20489;-72
2022/07/03 01:37:35;;;;;;;0.68;0.30;;;15.40;99.90;;;;;;5012211;28;20025;-71
2022/07/03 01:40:04;;;;;;;0.70;0.30;;;15.30;99.90;;;;;;5011122;28;20048;-71
2022/07/03 01:42:33;;;;;;;1.13;0.30;;;15.30;99.90;;;;;;5027167;28;20381;-71
2022/07/03 01:45:00;;;;;;;0.82;0.25;;;15.20;99.90;;;;;;5026433;28;20588;-71
2022/07/03 01:47:26;;;;;;;0.90;0.30;;;15.20;99.90;;;;;;5012004;28;20087;-71
2022/07/03 01:49:54;;;;;;;0.60;0.28;;;15.20;99.90;;;;;;5012795;28;20060;-72
2022/07/03 01:52:21;;;;;;;1.20;0.40;;;15.10;99.90;;;;;;5025783;28;20038;-72
2022/07/03 01:54:47;;;;;;;0.68;0.30;;;15.20;99.90;;;;;;5012440;28;20021;-71
2022/07/03 01:57:14;;;;;;;1.50;0.40;;;15.10;99.90;;;;;;5014932;28;20037;-71
2022/07/03 01:59:39;;;;;;;1.80;0.30;;;15.10;99.90;;;;;;5012955;28;20147;-72
2022/07/03 02:02:24;;;;;;;1.00;0.35;;;15.00;99.90;;;;;;5017616;28;20037;-72
2022/07/03 02:05:07;;;;;;;1.00;0.30;;;15.00;99.90;;;;;;5011993;28;20397;-72
2022/07/03 02:07:58;;;;;;;0.95;0.38;;;14.90;99.90;;;;;;5011948;28;20038;-71
2022/07/03 02:10:30;;;;;;;0.90;0.28;;;14.80;99.90;;;;;;5009177;28;20045;-72
2022/07/03 02:13:09;;;;;;;1.48;0.47;;;14.70;99.90;;;;;;5006901;28;20061;-72
2022/07/03 02:15:36;;;;;;;4.57;0.97;;;14.60;99.90;;;;;;5028696;28;20152;-72
2022/07/03 02:18:10;;;;;;;4.20;0.88;;;14.20;99.90;;;;;;5011977;28;20044;-71
2022/07/03 02:20:39;;;;;;;2.58;0.73;;;14.50;99.90;;;;;;5026903;28;20402;-72
2022/07/03 02:23:07;;;;;;;1.63;0.80;;;14.60;99.90;;;;;;5026326;28;20080;-74
2022/07/03 02:25:39;;;;;;;3.25;1.33;;;14.60;99.90;;;;;;5017977;28;20425;-71
2022/07/03 02:28:39;;;;;;;2.88;1.85;;;14.90;99.90;;;;;;5024836;28;20029;-72
2022/07/03 02:31:07;;;;;;;7.45;1.20;;;15.00;99.90;;;;;;4987964;28;20044;-72
2022/07/03 02:33:38;;;;;;;2.40;1.10;;;15.00;99.90;;;;;;5027749;28;20041;-71
2022/07/03 02:36:05;;;;;;;2.88;0.90;;;15.00;99.90;;;;;;5025288;28;20482;-72
2022/07/03 02:38:31;;;;;;;2.45;1.10;;;15.10;99.90;;;;;;5027601;28;20568;-72
2022/07/03 02:41:25;;;;;;;2.47;0.90;;;15.20;99.90;;;;;;5002631;28;20040;-72
2022/07/03 02:44:23;;;;;;;2.40;1.02;;;15.20;99.90;;;;;;5005665;28;20052;-72
2022/07/03 02:47:04;;;;;;;2.55;0.85;;;15.10;99.90;;;;;;5010184;28;20045;-71
2022/07/03 02:49:48;;;;;;;1.80;0.70;;;15.00;99.90;;;;;;5027490;28;20057;-72
2022/07/03 02:52:42;;;;;;;3.45;0.80;;;15.00;99.90;;;;;;5022757;28;20026;-72
2022/07/03 02:55:26;;;;;;;1.63;0.60;;;14.90;99.90;;;;;;5012272;28;20768;-72
2022/07/03 02:58:13;;;;;;;2.00;0.60;;;14.90;99.90;;;;;;5029836;28;20435;-71
2022/07/03 03:00:45;;;;;;;2.95;0.60;;;14.80;99.90;;;;;;5030163;28;20029;-72
2022/07/03 03:03:11;;;;;;;2.17;0.50;;;14.90;99.90;;;;;;5014872;28;20401;-71
2022/07/03 03:05:47;;;;;;;1.08;0.50;;;14.80;99.90;;;;;;5014042;28;20045;-72
2022/07/03 03:08:12;;;;;;;3.20;0.50;;;14.80;99.90;;;;;;5010530;28;20045;-72
2022/07/03 03:10:39;;;;;;;2.40;0.70;;;14.70;99.90;;;;;;5030188;28;20032;-71
2022/07/03 03:13:08;;;;;;;1.23;0.50;;;14.70;99.90;;;;;;5021509;28;20037;-71
2022/07/03 03:15:35;;;;;;;1.08;0.50;;;14.70;99.90;;;;;;5014787;28;20033;-72
2022/07/03 03:18:07;;;;;;;1.63;0.50;;;14.60;99.90;;;;;;5016527;28;20029;-72
2022/07/03 03:20:35;;;;;;;1.00;0.40;;;14.70;99.90;;;;;;5004277;28;20425;-71
2022/07/03 03:23:26;;;;;;;2.53;0.60;;;14.60;99.90;;;;;;5005328;28;20630;-72
2022/07/03 03:25:53;;;;;;;1.85;0.55;;;14.40;99.90;;;;;;5017726;28;20037;-71
2022/07/03 03:28:19;;;;;;;1.20;0.50;;;14.50;99.90;;;;;;5028619;28;20109;-71
2022/07/03 03:30:45;;;;;;;1.58;0.60;;;14.50;99.90;;;;;;5027239;28;20382;-72
2022/07/03 03:33:12;;;;;;;2.17;0.65;;;14.40;99.90;;;;;;5014004;28;20044;-71
2022/07/03 03:35:39;;;;;;;1.90;0.77;;;14.40;99.90;;;;;;5028817;28;20469;-72
2022/07/03 03:38:05;;;;;;;1.70;0.50;;;14.40;99.90;;;;;;5028352;28;20022;-71
2022/07/03 03:40:32;;;;;;;1.48;0.65;;;14.40;99.90;;;;;;5017405;28;20056;-72
2022/07/03 03:42:58;;;;;;;1.63;0.75;;;14.40;99.90;;;;;;5013477;28;20104;-72
2022/07/03 03:45:24;;;;;;;1.73;0.77;;;14.40;99.90;;;;;;5027916;28;20057;-71
2022/07/03 03:47:49;;;;;;;2.92;0.65;;;14.30;99.90;;;;;;5027173;28;20029;-71
2022/07/03 03:50:15;;;;;;;2.45;0.90;;;14.30;99.90;;;;;;5043093;28;20132;-72
2022/07/03 03:52:42;;;;;;;1.50;0.60;;;14.30;99.90;;;;;;5027852;28;20022;-73
2022/07/03 03:55:09;;;;;;;1.45;0.60;;;14.40;99.90;;;;;;5026030;28;20469;-72
2022/07/03 03:57:35;;;;;;;2.30;0.80;;;14.40;99.90;;;;;;5028112;28;20029;-72
2022/07/03 04:00:02;;;;;;;1.40;0.70;;;14.30;99.90;;;;;;5009870;28;20482;-71
2022/07/03 04:02:38;;;;;;;1.15;0.60;;;14.30;99.90;;;;;;5028547;28;20033;-71
2022/07/03 04:05:04;;;;;;;1.50;0.60;;;14.40;99.90;;;;;;5027591;28;20038;-72
2022/07/03 04:07:30;;;;;;;2.33;0.60;;;14.50;99.90;;;;;;5009714;28;20036;-71
2022/07/03 04:09:56;;;;;;;2.35;0.77;;;14.60;99.90;;;;;;5011535;28;20477;-71
2022/07/03 04:12:21;;;;;;;1.85;0.70;;;14.70;99.90;;;;;;5027764;28;20048;-71
2022/07/03 04:14:47;;;;;;;1.77;0.60;;;14.80;99.90;;;;;;5042355;28;20469;-72
2022/07/03 04:17:13;;;;;;;1.35;0.65;;;14.80;99.90;;;;;;5027610;28;20059;-72
2022/07/03 04:19:38;;;;;;;1.27;0.50;;;14.90;99.90;;;;;;5013537;28;20402;-71
2022/07/03 04:22:08;;;;;;;1.20;0.60;;;15.00;99.90;;;;;;5012239;28;20059;-71
2022/07/03 04:24:35;;;;;;;4.13;0.52;;;15.00;99.90;;;;;;5028425;28;20041;-72
2022/07/03 04:27:00;;;;;;;1.92;0.50;;;15.20;99.90;;;;;;5019555;28;20444;-71
2022/07/03 04:29:26;;;;;;;1.98;0.50;;;15.30;99.90;;;;;;5026901;28;20112;-72
2022/07/03 04:31:52;;;;;;;1.25;0.60;;;15.40;99.90;;;;;;5013014;28;20037;-74
2022/07/03 04:34:17;;;;;;;1.83;0.60;;;15.50;99.90;;;;;;5002166;28;20095;-71
2022/07/03 04:36:43;;;;;;;1.30;0.60;;;15.60;99.90;;;;;;5025853;28;20112;-72
2022/07/03 04:39:09;;;;;;;1.88;0.50;;;15.70;99.90;;;;;;5027005;28;20041;-74
2022/07/03 04:41:35;;;;;;;2.85;0.50;;;15.70;99.90;;;;;;5027483;28;20116;-72
2022/07/03 04:44:00;;;;;;;1.50;0.60;;;15.70;99.90;;;;;;5027147;28;20383;-72
2022/07/03 04:46:26;;;;;;;1.73;0.82;;;15.80;99.90;;;;;;5026899;28;20022;-72
2022/07/03 04:48:51;;;;;;;1.65;0.85;;;15.70;99.90;;;;;;5018801;28;20068;-71
2022/07/03 04:51:17;;;;;;;1.60;0.82;;;15.60;99.90;;;;;;5000634;28;20033;-72
2022/07/03 04:53:43;;;;;;;1.58;0.90;;;15.60;99.90;;;;;;5027659;28;20037;-71
2022/07/03 04:56:08;;;;;;;2.22;1.05;;;15.50;99.90;;;;;;5027142;28;20029;-71
2022/07/03 04:58:34;;;;;;;1.77;0.80;;;15.50;99.90;;;;;;5015433;28;20452;-72
2022/07/03 05:01:00;;;;;;;2.17;0.77;;;15.50;99.90;;;;;;5019196;28;20025;-71
2022/07/03 05:03:27;;;;;;;1.60;0.90;;;15.60;99.90;;;;;;5012797;28;20041;-72
2022/07/03 05:05:52;;;;;;;2.17;0.88;;;15.80;99.90;;;;;;4999031;28;20048;-71
2022/07/03 05:08:19;;;;;;;2.83;0.90;;;15.80;99.90;;;;;;5014088;28;20079;-71
2022/07/03 05:10:46;;;;;;;2.20;1.10;;;15.90;99.90;;;;;;5028766;28;20168;-73
2022/07/03 05:13:11;;;;;;;2.00;0.95;;;16.10;99.90;;;;;;5029520;28;20029;-72
2022/07/03 05:15:37;;;;;;;1.70;1.15;;;16.20;99.90;;;;;;5026267;28;20496;-72
2022/07/03 05:18:03;;;;;;;1.67;0.70;;;16.50;99.90;;;;;;5007606;28;20114;-72
2022/07/03 05:20:29;;;;;;;1.42;0.70;;;16.80;99.90;;;;;;5016806;28;20024;-72
2022/07/03 05:22:59;;;;;;;3.88;1.33;;;17.10;99.90;;;;;;5028855;28;20055;-72
2022/07/03 05:25:26;;;;;;;1.98;1.00;;;17.20;99.90;;;;;;5028899;28;20040;-72
2022/07/03 05:27:55;;;;;;;2.38;0.70;;;17.40;99.90;;;;;;5015933;28;20029;-72
2022/07/03 05:30:24;;;;;;;3.47;1.30;;;17.50;99.90;;;;;;5024532;28;20508;-72
2022/07/03 05:32:50;;;;;;;3.00;1.38;;;17.40;99.90;;;;;;5007065;28;20040;-72
2022/07/03 05:35:16;;;;;;;3.08;0.85;;;17.20;99.90;;;;;;5015583;28;20032;-72
2022/07/03 05:37:42;;;;;;;2.97;1.50;;;17.10;99.90;;;;;;5010664;28;20147;-72
2022/07/03 05:40:08;;;;;;;2.17;1.20;;;17.30;99.90;;;;;;5026893;28;20845;-72
2022/07/03 05:42:34;;;;;;;3.42;1.38;;;17.20;99.90;;;;;;5016684;28;20123;-72
2022/07/03 05:45:00;;;;;;;3.00;1.02;;;17.50;99.90;;;;;;5026292;28;22199;-72
2022/07/03 05:47:26;;;;;;;2.58;0.80;;;17.50;99.90;;;;;;5009690;28;20029;-73
2022/07/03 05:49:51;;;;;;;2.65;1.23;;;17.60;99.90;;;;;;5026828;28;20037;-72
2022/07/03 05:52:17;;;;;;;2.17;0.70;;;17.80;99.90;;;;;;5018573;28;20071;-72
2022/07/03 05:54:43;;;;;;;1.73;0.57;;;18.00;99.90;;;;;;5016212;28;20393;-72
2022/07/03 05:57:09;;;;;;;2.80;0.75;;;18.00;99.90;;;;;;5013196;28;20100;-73
2022/07/03 05:59:34;;;;;;;2.13;0.60;;;18.00;99.90;;;;;;5012238;28;20028;-72
2022/07/03 06:02:00;;;;;;;1.95;0.63;;;18.10;99.90;;;;;;5012504;28;20844;-72
2022/07/03 06:04:26;;;;;;;3.05;0.90;;;18.50;99.90;;;;;;4996600;28;20051;-72
2022/07/03 06:06:54;;;;;;;2.55;0.73;;;18.70;99.90;;;;;;5010654;28;20413;-73
2022/07/03 06:09:20;;;;;;;2.20;0.80;;;18.60;99.90;;;;;;5027931;28;20024;-72
2022/07/03 06:11:47;;;;;;;3.92;0.80;;;18.40;99.90;;;;;;5026054;28;20391;-72
2022/07/03 06:14:13;;;;;;;3.63;0.80;;;18.10;99.90;;;;;;5026082;28;20045;-72
2022/07/03 06:16:39;;;;;;;1.45;0.60;;;17.80;99.90;;;;;;5024622;28;20119;-72
2022/07/03 06:19:05;;;;;;;3.70;0.60;;;18.10;99.90;;;;;;5023352;28;20713;-72
2022/07/03 06:21:31;;;;;;;1.80;0.60;;;18.20;99.90;;;;;;5026516;28;20245;-72
2022/07/03 06:23:57;;;;;;;1.95;0.50;;;18.20;99.90;;;;;;5040750;28;20037;-72
2022/07/03 06:26:23;;;;;;;2.00;0.50;;;18.40;99.90;;;;;;5007999;28;20037;-72
2022/07/03 06:28:49;;;;;;;2.72;0.50;;;18.60;99.90;;;;;;5023192;28;20135;-72
2022/07/03 06:31:14;;;;;;;3.47;0.60;;;18.70;99.90;;;;;;5024766;28;20029;-72
2022/07/03 06:33:40;;;;;;;3.13;0.57;;;18.80;99.90;;;;;;5023914;28;20030;-72
2022/07/03 06:36:06;;;;;;;2.85;0.47;;;18.90;99.90;;;;;;5024343;28;20029;-72
2022/07/03 06:38:32;;;;;;;3.25;0.40;;;19.00;99.90;;;;;;5026004;28;20037;-72
2022/07/03 06:40:57;;;;;;;1.60;0.45;;;19.20;99.90;;;;;;5014865;28;20026;-72
2022/07/03 06:43:23;;;;;;;2.03;0.60;;;19.40;99.90;;;;;;5015662;28;20099;-72
2022/07/03 06:45:49;;;;;;;3.17;0.40;;;19.30;99.90;;;;;;5025052;28;20029;-72
2022/07/03 06:48:14;;;;;;;1.20;0.40;;;19.40;99.90;;;;;;5010669;28;20041;-73
2022/07/03 06:50:40;;;;;;;2.47;0.50;;;19.50;99.90;;;;;;4994613;28;20036;-72
2022/07/03 06:53:06;;;;;;;1.27;0.40;;;19.50;99.90;;;;;;5017651;28;20040;-72
2022/07/03 06:55:32;;;;;;;1.80;0.40;;;19.60;99.90;;;;;;5011665;28;20090;-72
2022/07/03 06:57:57;;;;;;;1.95;0.40;;;19.70;99.90;;;;;;5025338;28;20465;-72
2022/07/03 07:00:23;;;;;;;1.80;0.40;;;19.90;99.90;;;;;;5029781;28;20032;-72
2022/07/03 07:02:48;;;;;;;1.98;0.50;;;20.30;99.90;;;;;;5027897;28;20029;-72
2022/07/03 07:05:14;;;;;;;3.17;0.60;;;20.00;99.90;;;;;;5012082;28;20055;-75
2022/07/03 07:07:40;;;;;;;2.42;0.50;;;19.80;99.90;;;;;;5026983;28;20029;-72
2022/07/03 07:10:06;;;;;;;2.28;0.47;;;20.20;99.90;;;;;;5014193;28;20159;-72
2022/07/03 07:12:32;;;;;;;3.15;0.50;;;20.40;99.90;;;;;;4999380;28;20029;-72
2022/07/03 07:14:57;;;;;;;2.20;0.43;;;20.30;99.90;;;;;;4999274;28;20400;-72
2022/07/03 07:17:23;;;;;;;2.28;0.40;;;20.50;99.90;;;;;;5008999;28;20168;-72
2022/07/03 07:19:49;;;;;;;3.25;0.57;;;20.40;99.90;;;;;;5014792;28;20029;-73
2022/07/03 07:22:14;;;;;;;3.28;0.40;;;20.00;99.90;;;;;;5014566;28;20034;-73
2022/07/03 07:24:40;;;;;;;2.55;0.40;;;20.10;99.90;;;;;;5023900;28;20041;-72
2022/07/03 07:27:05;;;;;;;2.72;0.40;;;20.40;99.90;;;;;;5025416;28;20029;-73
2022/07/03 07:29:31;;;;;;;1.80;0.40;;;20.50;99.90;;;;;;5028897;28;20032;-73
2022/07/03 07:31:57;;;;;;;2.63;0.50;;;20.30;99.90;;;;;;5027905;28;20369;-75
2022/07/03 07:34:22;;;;;;;2.53;0.43;;;20.40;99.90;;;;;;5027532;28;20505;-72
2022/07/03 07:36:48;;;;;;;1.67;0.40;;;20.10;99.90;;;;;;5028493;28;20475;-73
2022/07/03 07:39:14;;;;;;;1.52;0.40;;;20.40;99.90;;;;;;5025523;28;20666;-73
2022/07/03 07:41:39;;;;;;;1.40;0.50;;;20.40;99.90;;;;;;5024471;28;20029;-73
2022/07/03 07:44:05;;;;;;;3.97;0.63;;;20.70;99.90;;;;;;5028697;28;20400;-73
2022/07/03 07:46:31;;;;;;;2.50;0.30;;;20.70;99.90;;;;;;5030882;28;20067;-73
2022/07/03 07:48:57;;;;;;;1.13;0.40;;;20.70;99.90;;;;;;5013573;28;21835;-73
2022/07/03 07:51:23;;;;;;;1.33;0.30;;;20.70;99.90;;;;;;5032264;28;20032;-73
2022/07/03 07:53:50;;;;;;;0.98;0.30;;;21.30;99.90;;;;;;5030802;28;20462;-72
2022/07/03 07:56:15;;;;;;;1.50;0.30;;;21.00;99.90;;;;;;5018525;28;20017;-73
2022/07/03 07:58:42;;;;;;;1.45;0.40;;;20.50;99.90;;;;;;5013200;28;20370;-73
2022/07/03 08:06:36;;;;;;;1.08;0.30;;;21.20;99.90;;;;;;5013803;28;20566;-73
2022/07/03 08:09:02;;;;;;;0.85;0.20;;;21.40;99.90;;;;;;5029429;28;20025;-75
2022/07/03 08:11:28;;;;;;;1.60;0.13;;;21.50;99.90;;;;;;5000973;28;20079;-74
2022/07/03 08:13:54;;;;;;;0.57;0.10;;;22.40;99.90;;;;;;5029184;28;20402;-75
2022/07/03 08:16:19;;;;;;;1.23;0.10;;;21.80;99.90;;;;;;5027705;28;20582;-74
2022/07/03 08:18:45;;;;;;;0.40;0.10;;;22.40;99.90;;;;;;5018267;28;20469;-74
2022/07/03 08:21:11;;;;;;;0.95;0.10;;;23.00;99.90;;;;;;5011524;28;20041;-74
2022/07/03 08:23:36;;;;;;;1.67;0.20;;;22.80;99.90;;;;;;5028070;28;20053;-73
2022/07/03 08:26:02;;;;;;;0.70;0.10;;;23.30;99.90;;;;;;5008321;28;20032;-73
2022/07/03 08:28:28;;;;;;;1.67;0.20;;;23.00;99.90;;;;;;5012212;28;20258;-74
2022/07/03 08:30:54;;;;;;;1.33;0.30;;;22.20;99.90;;;;;;5028048;28;20028;-74
2022/07/03 08:33:19;;;;;;;1.13;0.30;;;21.80;99.90;;;;;;5026703;28;20523;-74
2022/07/03 08:35:45;;;;;;;0.88;0.20;;;21.90;99.90;;;;;;5025983;28;20033;-73
2022/07/03 08:38:11;;;;;;;0.70;0.10;;;22.90;99.90;;;;;;5016119;28;20029;-73
2022/07/03 08:40:38;;;;;;;1.85;0.30;;;23.50;99.90;;;;;;5011070;28;20037;-74
2022/07/03 08:43:05;;;;;;;1.52;0.20;;;22.40;99.90;;;;;;5028600;28;20124;-73
2022/07/03 08:45:33;;;;;;;1.77;0.20;;;22.20;99.90;;;;;;5003013;28;20469;-73
2022/07/03 08:47:59;;;;;;;3.45;0.30;;;21.80;99.90;;;;;;5030876;28;20749;-73
2022/07/03 08:50:25;;;;;;;1.95;0.13;;;21.60;99.90;;;;;;5019248;28;20032;-73
2022/07/03 08:52:51;;;;;;;2.75;0.32;;;22.10;99.90;;;;;;5013209;28;20040;-73
2022/07/03 08:55:18;;;;;;;1.02;0.17;;;22.30;99.90;;;;;;5028832;28;20037;-78
2022/07/03 08:57:46;;;;;;;0.63;0.10;;;23.50;99.90;;;;;;5028869;28;20036;-73
2022/07/03 09:00:17;;;;;;;0.57;0.10;;;24.00;99.90;;;;;;5011125;28;20555;-74
2022/07/03 09:02:45;;;;;;;1.23;0.10;;;23.90;99.90;;;;;;5028393;28;20469;-76
2022/07/03 09:05:11;;;;;;;1.52;0.20;;;23.00;99.90;;;;;;5025958;28;20045;-73
2022/07/03 09:07:40;;;;;;;2.00;0.20;;;22.60;99.90;;;;;;5011398;28;20438;-75
2022/07/03 09:10:11;;;;;;;2.53;0.20;;;22.60;99.90;;;;;;4989281;28;20033;-74
2022/07/03 09:12:37;;;;;;;2.22;0.10;;;22.40;99.90;;;;;;5027015;28;20037;-75
2022/07/03 09:15:04;;;;;;;1.10;0.30;;;22.10;99.90;;;;;;5011273;28;20036;-75
2022/07/03 09:17:31;;;;;;;1.08;0.10;;;22.50;99.90;;;;;;5000353;28;20044;-76
2022/07/03 09:20:03;;;;;;;0.40;0.10;;;23.60;99.90;;;;;;5016664;28;20048;-74
2022/07/03 09:22:36;;;;;;;0.43;0.10;;;22.70;99.90;;;;;;5016953;28;20026;-73
2022/07/03 09:25:07;;;;;;;1.58;0.13;;;22.50;99.90;;;;;;5015517;28;20064;-74
2022/07/03 09:27:34;;;;;;;0.68;0.10;;;22.60;99.90;;;;;;5027511;28;20545;-74
2022/07/03 09:30:04;;;;;;;2.22;0.15;;;22.50;99.90;;;;;;5027671;28;20120;-73
2022/07/03 09:32:42;;;;;;;0.52;0.10;;;22.50;99.90;;;;;;5028512;28;20018;-73
2022/07/03 09:35:19;;;;;;;0.88;0.10;;;23.30;99.90;;;;;;4999016;28;20527;-74
2022/07/03 09:38:01;;;;;;;0.82;0.10;;;24.40;99.90;;;;;;5011840;28;20037;-74
2022/07/03 09:40:48;;;;;;;0.68;0.10;;;24.30;99.90;;;;;;5030118;28;20032;-73
2022/07/03 09:43:14;;;;;;;0.95;0.10;;;23.40;99.90;;;;;;5029403;28;20405;-74
2022/07/03 09:45:48;;;;;;;0.80;0.10;;;23.80;99.90;;;;;;5019316;28;20113;-75
2022/07/03 09:48:37;;;;;;;1.65;0.10;;;22.90;99.90;;;;;;5030275;28;20078;-74
2022/07/03 09:51:17;;;;;;;0.40;0.10;;;23.20;99.90;;;;;;5013544;28;20170;-74
2022/07/03 09:53:58;;;;;;;1.67;0.40;;;23.30;99.90;;;;;;5028727;28;20485;-73
2022/07/03 09:56:33;;;;;;;1.20;0.00;;;23.70;99.90;;;;;;5027120;28;20057;-81
2022/07/03 09:59:01;;;;;;;1.83;0.10;;;23.30;99.90;;;;;;5009540;28;20024;-73
2022/07/03 10:01:27;;;;;;;0.80;0.10;;;24.00;99.90;;;;;;5026251;28;20052;-74
2022/07/03 10:03:54;;;;;;;0.43;0.10;;;24.60;99.90;;;;;;5010177;28;20531;-74
2022/07/03 10:06:20;;;;;;;1.90;0.20;;;24.00;99.90;;;;;;5025103;28;20045;-74
2022/07/03 10:08:47;;;;;;;0.63;0.10;;;23.70;99.90;;;;;;5023628;28;20516;-73
2022/07/03 10:11:13;;;;;;;1.02;0.20;;;23.60;99.90;;;;;;5016753;28;20500;-74
2022/07/03 10:13:40;;;;;;;2.83;0.20;;;23.80;99.90;;;;;;5023938;28;20169;-74
2022/07/03 10:16:07;;;;;;;1.60;0.10;;;23.20;99.90;;;;;;5025091;28;20029;-74
2022/07/03 10:18:37;;;;;;;1.15;0.10;;;23.10;99.90;;;;;;5010329;28;20024;-73
2022/07/03 10:21:06;;;;;;;1.48;0.15;;;23.50;99.90;;;;;;5016985;28;20045;-76
2022/07/03 10:23:32;;;;;;;1.70;0.10;;;23.80;99.90;;;;;;4998514;28;20722;-73
2022/07/03 10:25:58;;;;;;;0.95;0.20;;;24.50;99.90;;;;;;5015573;28;20432;-74
2022/07/03 10:28:24;;;;;;;0.50;0.10;;;23.80;99.90;;;;;;5024789;28;20528;-73
2022/07/03 10:30:50;;;;;;;1.13;0.20;;;23.60;99.90;;;;;;5025195;28;20025;-74
2022/07/03 10:33:17;;;;;;;0.80;0.10;;;24.00;99.90;;;;;;5000502;28;20077;-74
2022/07/03 10:35:47;;;;;;;5.70;0.30;;;24.40;99.90;;;;;;5017746;28;20026;-74
2022/07/03 10:38:39;;;;;;;0.90;0.20;;;23.30;99.90;;;;;;5011871;28;20047;-74
2022/07/03 10:47:02;;;;;;;1.73;0.20;;;22.30;99.90;;;;;;5011299;28;20029;-74
2022/07/03 10:49:28;;;;;;;2.08;0.30;;;23.10;99.90;;;;;;5011696;28;20090;-74
2022/07/03 10:52:00;;;;;;;1.83;0.20;;;22.90;99.90;;;;;;5010616;28;20025;-73
2022/07/03 10:54:34;;;;;;;1.55;0.30;;;23.50;99.90;;;;;;5000872;28;20033;-74
2022/07/03 10:57:03;;;;;;;1.92;0.30;;;23.60;99.90;;;;;;5026248;28;20028;-76
2022/07/03 10:59:46;;;;;;;2.35;0.30;;;23.00;99.90;;;;;;5025433;28;20245;-73
2022/07/03 11:02:40;;;;;;;1.00;0.22;;;22.20;99.90;;;;;;5024569;28;20037;-73
2022/07/03 11:05:19;;;;;;;1.23;0.30;;;22.10;99.90;;;;;;5017590;28;20053;-74
2022/07/03 11:07:52;;;;;;;;;;;23.00;99.90;;;;;;5030644;28;20562;-75
2022/07/03 11:10:18;;;;;;;1.48;0.20;;;23.30;99.90;;;;;;5011865;28;19916;-74
2022/07/03 11:13:17;;;;;;;4.05;0.20;;;23.80;99.90;;;;;;5012720;28;20041;-73
2022/07/03 11:15:53;;;;;;;1.55;0.20;;;23.40;99.90;;;;;;4997137;28;20078;-74
2022/07/03 11:18:23;;;;;;;0.90;0.10;;;23.50;99.90;;;;;;5019291;28;20041;-74
2022/07/03 11:20:49;;;;;;;0.80;0.10;;;23.50;99.90;;;;;;5011126;28;20026;-74
2022/07/03 11:23:28;;;;;;;1.67;0.20;;;24.10;99.90;;;;;;5020174;28;20057;-74
2022/07/03 11:25:56;;;;;;;1.38;0.20;;;23.70;99.90;;;;;;5001918;28;20389;-74
2022/07/03 11:28:34;;;;;;;2.38;0.20;;;23.00;99.90;;;;;;5029527;28;20028;-74
2022/07/03 11:31:15;;;;;;;0.93;0.20;;;23.00;99.90;;;;;;5012919;28;20025;-74
2022/07/03 11:33:53;;;;;;;1.63;0.13;;;23.30;99.90;;;;;;5000715;28;20037;-74
2022/07/03 11:36:22;;;;;;;0.93;0.13;;;24.00;99.90;;;;;;5027475;28;20083;-75
2022/07/03 11:39:02;;;;;;;1.27;0.13;;;23.40;99.90;;;;;;5020330;28;20528;-74
2022/07/03 11:41:36;;;;;;;;;;;23.80;99.90;;;;;;5020876;28;20298;-74
2022/07/03 11:44:04;;;;;;;0.75;0.10;;;24.40;99.90;;;;;;5021932;28;19932;-73
2022/07/03 11:46:32;;;;;;;1.33;0.20;;;23.40;99.90;;;;;;5036225;28;21077;-74
2022/07/03 11:49:09;;;;;;;0.85;0.10;;;22.80;99.90;;;;;;5037038;28;20029;-74
2022/07/03 11:51:37;;;;;;;0.63;0.20;;;22.50;99.90;;;;;;5037694;28;20046;-75
2022/07/03 11:54:03;;;;;;;3.15;0.30;;;23.40;99.90;;;;;;5022156;28;20102;-73
2022/07/03 11:56:29;;;;;;;1.52;0.20;;;23.30;99.90;;;;;;5020980;28;20112;-73
2022/07/03 11:58:57;;;;;;;1.00;0.10;;;23.30;99.90;;;;;;5028186;28;20033;-74
2022/07/03 12:01:26;;;;;;;0.63;0.10;;;22.90;99.90;;;;;;5036936;28;20096;-75
2022/07/03 12:04:17;;;;;;;2.53;0.20;;;23.50;99.90;;;;;;5019425;28;20374;-74
2022/07/03 12:06:51;;;;;;;0.90;0.15;;;23.80;99.90;;;;;;5016752;28;20071;-74
2022/07/03 12:09:21;;;;;;;2.65;0.20;;;23.40;99.90;;;;;;5037587;28;20029;-73
2022/07/03 12:12:02;;;;;;;0.60;0.10;;;22.50;99.90;;;;;;5038117;28;20040;-73
2022/07/03 12:14:44;;;;;;;2.30;0.20;;;22.90;99.90;;;;;;5032054;28;20033;-74
2022/07/03 12:17:30;;;;;;;1.13;0.20;;;23.10;99.90;;;;;;5016024;28;20121;-74
2022/07/03 12:19:58;;;;;;;0.90;0.20;;;23.30;99.90;;;;;;5021029;28;20037;-74
2022/07/03 12:22:26;;;;;;;0.60;0.10;;;23.40;99.90;;;;;;5027862;28;20068;-73
2022/07/03 12:25:09;;;;;;;1.27;0.10;;;23.10;99.90;;;;;;5029999;28;20052;-75
2022/07/03 12:27:38;;;;;;;0.55;0.10;;;23.90;99.90;;;;;;5028402;28;20499;-74
2022/07/03 12:30:06;;;;;;;1.92;0.17;;;24.90;99.90;;;;;;5002505;28;20033;-75
2022/07/03 12:32:32;;;;;;;0.50;0.10;;;24.80;99.90;;;;;;5029811;28;20462;-74
2022/07/03 12:34:58;;;;;;;0.35;0.10;;;24.90;99.90;;;;;;5029193;28;20217;-74
2022/07/03 12:37:34;;;;;;;1.20;0.10;;;25.10;99.90;;;;;;5030674;28;20078;-75
2022/07/03 12:40:00;;;;;;;0.25;0.10;;;24.60;99.90;;;;;;5028197;28;20037;-76
2022/07/03 12:42:26;;;;;;;1.10;0.10;;;24.30;99.90;;;;;;5028880;28;20025;-76
2022/07/03 12:45:02;;;;;;;0.63;0.10;;;24.40;99.90;;;;;;5011186;28;20040;-74
2022/07/03 12:47:30;;;;;;;1.90;0.10;;;24.60;99.90;;;;;;5027701;28;20485;-74
2022/07/03 12:50:03;;;;;;;0.73;0.10;;;23.90;99.90;;;;;;5027556;28;20051;-73
2022/07/03 12:52:34;;;;;;;0.95;0.10;;;23.90;99.90;;;;;;5035419;28;20044;-73
2022/07/03 12:55:01;;;;;;;0.93;0.20;;;23.00;99.90;;;;;;5014907;28;20029;-74
2022/07/03 13:00:16;;;;;;;1.10;0.10;;;22.80;99.90;;;;;;5023742;28;20021;-74
2022/07/03 13:02:46;;;;;;;1.25;0.17;;;23.00;99.90;;;;;;5031976;28;20029;-75
2022/07/03 13:05:22;;;;;;;;;;;23.00;99.90;;;;;;5035570;28;20734;-75
2022/07/03 13:07:50;;;;;;;1.13;0.20;;;22.70;99.90;;;;;;5033565;28;19909;-74
2022/07/03 13:10:17;;;;;;;1.25;0.20;;;22.50;99.90;;;;;;5033078;28;20124;-74
2022/07/03 13:12:57;;;;;;;1.58;0.10;;;23.20;99.90;;;;;;5006293;28;20450;-75
2022/07/03 13:15:29;;;;;;;1.85;0.10;;;22.90;99.90;;;;;;5017691;28;20025;-79